createdAt,value
2023-04-03T00:01:18.477Z,2.76
2023-04-03T00:03:45.216Z,2.72
2023-04-03T00:06:13.244Z,2.83
2023-04-03T00:08:41.399Z,2.83
2023-04-03T00:11:09.178Z,2.66
2023-04-03T00:13:36.614Z,2.74
2023-04-03T00:16:04.344Z,2.67
2023-04-03T00:18:31.353Z,0.67
2023-04-03T00:20:58.081Z,2.65
2023-04-03T00:23:24.829Z,2.42
2023-04-03T00:25:52.498Z,2.29
2023-04-03T00:28:19.159Z,2.51
2023-04-03T00:30:49.312Z,2.48
2023-04-03T00:33:20.499Z,2.32
2023-04-03T00:35:47.200Z,2.17
2023-04-03T00:38:14.230Z,2.28
2023-04-03T00:40:48.939Z,1.95
2023-04-03T00:43:21.685Z,2.28
2023-04-03T00:45:59.042Z,1.37
2023-04-03T00:48:36.152Z,2.07
2023-04-03T00:51:06.954Z,2.21
2023-04-03T00:53:42.412Z,2.29
2023-04-03T00:56:13.268Z,2.17
2023-04-03T00:58:52.869Z,1.81
2023-04-03T01:01:26.110Z,2.03
2023-04-03T01:03:55.503Z,2.19
2023-04-03T01:06:29.613Z,1.86
2023-04-03T01:08:57.150Z,2.15
2023-04-03T01:11:24.089Z,2.13
2023-04-03T01:13:51.178Z,2.03
2023-04-03T01:16:18.154Z,1.98
2023-04-03T01:18:46.674Z,2.08
2023-04-03T01:21:16.467Z,2.07
2023-04-03T01:24:07.392Z,1.89
2023-04-03T01:26:35.242Z,1.85
2023-04-03T01:29:02.004Z,2.04
2023-04-03T01:31:35.441Z,2.04
2023-04-03T01:34:02.870Z,1.75
2023-04-03T01:36:34.382Z,2.06
2023-04-03T01:39:01.867Z,2.04
2023-04-03T01:41:29.352Z,2.00
2023-04-03T01:43:55.974Z,1.65
2023-04-03T01:46:23.383Z,1.79
2023-04-03T01:48:50.369Z,2.02
2023-04-03T01:51:17.261Z,1.98
2023-04-03T01:53:44.020Z,1.87
2023-04-03T01:56:13.537Z,1.78
2023-04-03T01:58:40.560Z,1.98
2023-04-03T02:01:07.828Z,1.90
2023-04-03T02:03:34.826Z,2.06
2023-04-03T02:06:04.086Z,1.87
2023-04-03T02:08:33.389Z,2.07
2023-04-03T02:11:01.587Z,1.86
2023-04-03T02:13:31.087Z,1.94
2023-04-03T02:15:57.840Z,2.09
2023-04-03T02:18:26.989Z,2.09
2023-04-03T02:20:56.616Z,2.03
2023-04-03T02:23:28.318Z,2.05
2023-04-03T02:26:07.246Z,2.07
2023-04-03T02:28:34.365Z,2.06
2023-04-03T02:31:01.353Z,2.06
2023-04-03T02:33:30.543Z,1.93
2023-04-03T02:36:00.720Z,1.88
2023-04-03T02:38:27.402Z,1.33
2023-04-03T02:40:54.345Z,1.99
2023-04-03T02:43:21.112Z,1.99
2023-04-03T02:45:47.784Z,1.99
2023-04-03T02:48:16.140Z,1.93
2023-04-03T02:50:42.939Z,1.89
2023-04-03T02:53:09.809Z,1.94
2023-04-03T02:55:36.508Z,1.39
2023-04-03T02:58:08.633Z,1.89
2023-04-03T03:00:37.073Z,1.87
2023-04-03T03:03:04.240Z,1.61
2023-04-03T03:05:32.510Z,1.80
2023-04-03T03:07:59.317Z,1.66
2023-04-03T03:10:26.044Z,1.77
2023-04-03T03:12:52.948Z,1.70
2023-04-03T03:15:22.311Z,1.50
2023-04-03T03:17:51.573Z,1.62
2023-04-03T03:20:18.429Z,1.45
2023-04-03T03:22:47.846Z,1.60
2023-04-03T03:25:15.005Z,1.62
2023-04-03T03:27:41.673Z,1.59
2023-04-03T03:30:08.918Z,1.58
2023-04-03T03:32:36.032Z,1.41
2023-04-03T03:35:02.805Z,1.53
2023-04-03T03:37:29.551Z,1.39
2023-04-03T03:39:56.259Z,1.42
2023-04-03T03:42:23.470Z,1.43
2023-04-03T03:44:53.108Z,1.36
2023-04-03T03:47:19.897Z,1.42
2023-04-03T03:49:46.704Z,0.81
2023-04-03T03:52:13.639Z,1.31
2023-04-03T03:54:40.591Z,1.24
2023-04-03T03:57:07.529Z,1.26
2023-04-03T03:59:34.337Z,1.15
2023-04-03T04:02:01.376Z,1.22
2023-04-03T04:04:28.302Z,1.09
2023-04-03T04:06:55.182Z,1.00
2023-04-03T04:09:22.700Z,1.09
2023-04-03T04:11:54.042Z,1.03
2023-04-03T04:14:23.596Z,0.97
2023-04-03T04:16:50.438Z,1.13
2023-04-03T04:19:19.490Z,1.02
2023-04-03T04:21:46.656Z,0.99
2023-04-03T04:24:13.276Z,1.00
2023-04-03T04:26:40.022Z,0.75
2023-04-03T04:29:06.793Z,0.89
2023-04-03T04:31:33.778Z,0.76
2023-04-03T04:34:03.592Z,0.87
2023-04-03T04:36:32.859Z,1.05
2023-04-03T04:38:59.809Z,1.08
2023-04-03T04:41:27.110Z,1.08
2023-04-03T04:43:56.194Z,1.00
2023-04-03T04:46:22.934Z,1.14
2023-04-03T04:48:52.052Z,1.15
2023-04-03T04:51:18.681Z,0.84
2023-04-03T04:53:45.332Z,1.10
2023-04-03T04:56:12.544Z,1.15
2023-04-03T04:58:39.297Z,1.09
2023-04-03T05:01:09.045Z,1.01
2023-04-03T05:03:36.986Z,1.14
2023-04-03T05:06:04.251Z,1.03
2023-04-03T05:08:33.439Z,1.09
2023-04-03T05:11:02.576Z,1.04
2023-04-03T05:13:31.850Z,0.94
2023-04-03T05:15:58.623Z,0.87
2023-04-03T05:18:25.536Z,0.97
2023-04-03T05:20:54.942Z,1.01
2023-04-03T05:23:21.688Z,1.06
2023-04-03T05:25:50.687Z,0.98
2023-04-03T05:28:17.310Z,0.95
2023-04-03T05:30:44.152Z,1.12
2023-04-03T05:33:11.524Z,1.07
2023-04-03T05:35:42.734Z,0.42
2023-04-03T05:38:12.091Z,1.10
2023-04-03T05:40:39.014Z,1.00
2023-04-03T05:43:05.735Z,1.00
2023-04-03T05:45:34.970Z,1.18
2023-04-03T05:48:04.150Z,1.17
2023-04-03T05:50:31.335Z,1.12
2023-04-03T05:52:59.876Z,1.23
2023-04-03T05:55:26.562Z,1.27
2023-04-03T05:57:53.306Z,1.31
2023-04-03T06:00:20.701Z,1.22
2023-04-03T06:02:49.729Z,1.31
2023-04-03T06:05:16.652Z,1.41
2023-04-03T06:07:43.510Z,2.47
2023-04-03T06:10:13.329Z,4.83
2023-04-03T06:12:40.302Z,6.82
2023-04-03T06:15:09.245Z,6.98
2023-04-03T06:17:36.102Z,6.34
2023-04-03T06:20:03.373Z,4.89
2023-04-03T06:22:31.164Z,3.94
2023-04-03T06:24:58.453Z,3.38
2023-04-03T06:27:27.561Z,3.08
2023-04-03T06:29:54.249Z,2.96
2023-04-03T06:32:23.316Z,2.67
2023-04-03T06:34:49.983Z,2.51
2023-04-03T06:37:22.335Z,2.33
2023-04-03T06:39:52.167Z,2.41
2023-04-03T06:42:19.257Z,2.72
2023-04-03T06:44:48.212Z,2.74
2023-04-03T06:47:16.738Z,2.78
2023-04-03T06:49:44.429Z,2.78
2023-04-03T06:52:13.162Z,2.85
2023-04-03T06:54:41.149Z,3.10
2023-04-03T06:57:09.016Z,3.45
2023-04-03T06:59:37.719Z,4.26
2023-04-03T07:02:05.747Z,4.99
2023-04-03T07:04:32.945Z,6.45
2023-04-03T07:06:59.783Z,7.65
2023-04-03T07:09:27.163Z,9.26
2023-04-03T07:11:53.838Z,10.66
2023-04-03T07:14:23.184Z,11.98
2023-04-03T07:16:49.832Z,12.52
2023-04-03T07:19:16.618Z,13.05
2023-04-03T07:21:44.528Z,12.91
2023-04-03T07:24:15.110Z,12.86
2023-04-03T07:26:44.093Z,13.08
2023-04-03T07:29:10.912Z,13.68
2023-04-03T07:31:37.733Z,13.20
2023-04-03T07:34:07.209Z,13.61
2023-04-03T07:36:34.453Z,13.53
2023-04-03T07:39:01.192Z,14.21
2023-04-03T07:41:28.078Z,14.23
2023-04-03T07:43:56.113Z,14.44
2023-04-03T07:46:23.145Z,14.69
2023-04-03T07:48:50.013Z,14.68
2023-04-03T07:51:17.325Z,14.63
2023-04-03T07:53:44.360Z,14.48
2023-04-03T07:56:11.578Z,14.47
2023-04-03T07:58:38.427Z,14.76
2023-04-03T08:01:06.394Z,14.71
2023-04-03T08:03:33.342Z,14.50
2023-04-03T08:06:11.789Z,14.61
2023-04-03T08:08:42.518Z,12.98
2023-04-03T08:11:10.614Z,14.20
2023-04-03T08:13:39.831Z,13.94
2023-04-03T08:16:19.354Z,14.02
2023-04-03T08:18:46.416Z,14.13
2023-04-03T08:21:13.831Z,14.17
2023-04-03T08:23:45.725Z,14.03
2023-04-03T08:26:19.660Z,14.27
2023-04-03T08:28:46.474Z,14.91
2023-04-03T08:31:16.574Z,14.52
2023-04-03T08:33:45.964Z,15.17
2023-04-03T08:36:27.930Z,15.07
2023-04-03T08:38:56.269Z,14.78
2023-04-03T08:41:40.137Z,14.75
2023-04-03T08:44:27.528Z,14.68
2023-04-03T08:47:28.119Z,14.50
2023-04-03T08:49:59.987Z,14.41
2023-04-03T08:52:53.711Z,14.28
2023-04-03T08:55:43.937Z,13.82
2023-04-03T08:58:17.843Z,13.45
2023-04-03T09:00:54.698Z,13.24
2023-04-03T09:03:22.800Z,13.45
2023-04-03T09:06:16.177Z,13.96
2023-04-03T09:09:13.248Z,13.17
2023-04-03T09:12:01.528Z,12.92
2023-04-03T09:14:37.669Z,12.62
2023-04-03T09:17:15.484Z,12.61
2023-04-03T09:19:48.210Z,12.30
2023-04-03T09:22:30.117Z,11.77
2023-04-03T09:25:05.730Z,11.54
2023-04-03T09:27:32.483Z,11.26
2023-04-03T09:30:01.918Z,10.98
2023-04-03T09:32:35.328Z,10.85
2023-04-03T09:35:25.247Z,10.71
2023-04-03T09:38:14.371Z,10.76
2023-04-03T09:40:48.971Z,10.31
2023-04-03T09:43:19.117Z,10.35
2023-04-03T09:45:52.981Z,10.16
2023-04-03T09:48:24.370Z,9.94
2023-04-03T09:50:51.484Z,9.97
2023-04-03T09:53:33.021Z,9.91
2023-04-03T09:56:01.279Z,9.54
2023-04-03T09:58:49.814Z,9.27
2023-04-03T10:01:30.278Z,8.70
2023-04-03T10:04:17.453Z,9.17
2023-04-03T10:06:51.077Z,8.63
2023-04-03T10:09:26.103Z,9.09
2023-04-03T10:12:14.112Z,9.01
2023-04-03T10:14:54.169Z,8.85
2023-04-03T10:17:46.675Z,9.00
2023-04-03T10:20:24.170Z,9.03
2023-04-03T10:23:03.548Z,9.02
2023-04-03T10:25:38.586Z,9.07
2023-04-03T10:28:28.667Z,9.26
2023-04-03T10:31:01.137Z,9.34
2023-04-03T10:33:52.632Z,9.27
2023-04-03T10:36:28.862Z,9.17
2023-04-03T10:39:07.655Z,9.21
2023-04-03T10:41:48.291Z,9.26
2023-04-03T10:44:43.466Z,9.23
2023-04-03T10:47:39.589Z,9.23
2023-04-03T10:50:12.193Z,9.41
2023-04-03T10:52:49.129Z,9.52
2023-04-03T10:55:27.953Z,9.63
2023-04-03T10:58:01.714Z,9.74
2023-04-03T11:00:46.859Z,9.67
2023-04-03T11:03:54.282Z,9.75
2023-04-03T11:06:25.966Z,9.92
2023-04-03T11:09:07.863Z,9.89
2023-04-03T11:11:41.543Z,9.41
2023-04-03T11:14:28.638Z,9.78
2023-04-03T11:17:20.801Z,9.76
2023-04-03T11:20:10.154Z,9.83
2023-04-03T11:22:47.163Z,9.73
2023-04-03T11:25:13.667Z,9.65
2023-04-03T11:27:47.914Z,9.69
2023-04-03T11:30:37.153Z,9.81
2023-04-03T11:33:07.317Z,10.06
2023-04-03T11:35:38.954Z,9.33
2023-04-03T11:38:15.919Z,9.89
2023-04-03T11:40:47.706Z,9.79
2023-04-03T11:43:26.911Z,9.94
2023-04-03T11:46:07.610Z,9.75
2023-04-03T11:48:37.355Z,9.94
2023-04-03T11:51:29.894Z,9.88
2023-04-03T11:54:48.911Z,10.06
2023-04-03T11:57:46.298Z,10.20
2023-04-03T12:00:53.234Z,10.13
2023-04-03T12:03:32.325Z,10.21
2023-04-03T12:06:08.173Z,10.21
2023-04-03T12:08:35.260Z,10.22
2023-04-03T12:11:11.469Z,10.28
2023-04-03T12:13:39.878Z,10.33
2023-04-03T12:16:42.909Z,10.32
2023-04-03T12:19:16.030Z,10.33
2023-04-03T12:21:58.329Z,10.27
2023-04-03T12:24:31.984Z,10.18
2023-04-03T12:26:59.621Z,10.50
2023-04-03T12:29:39.638Z,10.53
2023-04-03T12:32:26.482Z,10.50
2023-04-03T12:35:12.560Z,10.58
2023-04-03T12:38:19.611Z,10.55
2023-04-03T12:40:58.260Z,10.59
2023-04-03T12:43:49.180Z,10.23
2023-04-03T12:46:19.301Z,10.52
2023-04-03T12:48:48.405Z,10.68
2023-04-03T12:51:23.171Z,10.74
2023-04-03T12:53:52.728Z,10.76
2023-04-03T12:56:21.678Z,11.04
2023-04-03T12:58:48.367Z,11.25
2023-04-03T13:01:21.036Z,11.36
2023-04-03T13:03:53.257Z,11.28
2023-04-03T13:06:24.775Z,11.12
2023-04-03T13:08:58.208Z,11.01
2023-04-03T13:11:27.170Z,10.97
2023-04-03T13:14:06.103Z,10.80
2023-04-03T13:16:34.610Z,10.65
2023-04-03T13:19:04.473Z,10.89
2023-04-03T13:21:34.705Z,10.77
2023-04-03T13:24:14.769Z,10.77
2023-04-03T13:26:42.684Z,10.69
2023-04-03T13:29:32.670Z,10.70
2023-04-03T13:32:01.471Z,10.72
2023-04-03T13:34:36.634Z,10.71
2023-04-03T13:37:05.424Z,10.12
2023-04-03T13:39:38.200Z,10.61
2023-04-03T13:42:24.744Z,10.53
2023-04-03T13:45:10.465Z,10.51
2023-04-03T13:47:41.362Z,10.59
2023-04-03T13:50:20.727Z,10.51
2023-04-03T13:53:03.559Z,10.48
2023-04-03T13:55:37.990Z,10.47
2023-04-03T13:58:23.917Z,10.48
2023-04-03T14:00:53.198Z,10.39
2023-04-03T14:03:38.161Z,10.33
2023-04-03T14:06:11.548Z,10.30
2023-04-03T14:08:42.957Z,10.37
2023-04-03T14:11:17.279Z,10.29
2023-04-03T14:13:45.458Z,10.24
2023-04-03T14:16:17.933Z,10.20
2023-04-03T14:18:50.822Z,10.26
2023-04-03T14:21:20.090Z,10.24
2023-04-03T14:23:49.658Z,10.27
2023-04-03T14:26:22.573Z,10.22
2023-04-03T14:28:52.350Z,10.24
2023-04-03T14:31:19.943Z,10.21
2023-04-03T14:33:49.966Z,10.29
2023-04-03T14:36:28.143Z,10.17
2023-04-03T14:38:57.995Z,10.18
2023-04-03T14:41:27.095Z,10.41
2023-04-03T14:43:53.889Z,10.33
2023-04-03T14:46:48.317Z,10.21
2023-04-03T14:49:23.646Z,10.18
2023-04-03T14:51:53.769Z,9.85
2023-04-03T14:54:26.402Z,10.36
2023-04-03T14:56:54.134Z,10.37
2023-04-03T14:59:22.502Z,10.42
2023-04-03T15:01:49.941Z,10.43
2023-04-03T15:04:20.169Z,10.42
2023-04-03T15:06:48.154Z,10.24
2023-04-03T15:09:31.024Z,10.27
2023-04-03T15:11:57.629Z,10.21
2023-04-03T15:14:35.763Z,10.12
2023-04-03T15:17:11.842Z,10.09
2023-04-03T15:19:41.489Z,10.03
2023-04-03T15:22:22.545Z,10.03
2023-04-03T15:24:49.047Z,9.94
2023-04-03T15:27:18.458Z,10.05
2023-04-03T15:29:45.937Z,10.05
2023-04-03T15:32:13.624Z,9.91
2023-04-03T15:34:41.132Z,9.99
2023-04-03T15:37:07.717Z,9.87
2023-04-03T15:39:34.411Z,9.94
2023-04-03T15:42:07.228Z,9.88
2023-04-03T15:44:37.211Z,9.83
2023-04-03T15:47:04.184Z,9.85
2023-04-03T15:49:37.145Z,9.79
2023-04-03T15:52:04.089Z,9.82
2023-04-03T15:54:30.783Z,9.76
2023-04-03T15:56:57.668Z,9.61
2023-04-03T15:59:27.065Z,9.66
2023-04-03T16:01:54.150Z,9.68
2023-04-03T16:04:23.802Z,9.61
2023-04-03T16:06:53.384Z,9.26
2023-04-03T16:09:20.754Z,9.56
2023-04-03T16:11:47.480Z,9.53
2023-04-03T16:14:14.300Z,9.36
2023-04-03T16:16:42.550Z,9.52
2023-04-03T16:19:11.429Z,9.51
2023-04-03T16:21:38.234Z,9.40
2023-04-03T16:24:05.735Z,9.52
2023-04-03T16:26:32.717Z,9.48
2023-04-03T16:28:59.557Z,9.42
2023-04-03T16:31:29.441Z,9.33
2023-04-03T16:33:57.854Z,9.22
2023-04-03T16:36:28.353Z,9.33
2023-04-03T16:38:55.338Z,9.22
2023-04-03T16:41:21.985Z,8.95
2023-04-03T16:43:48.805Z,9.26
2023-04-03T16:46:15.598Z,9.26
2023-04-03T16:48:42.245Z,9.21
2023-04-03T16:51:12.553Z,9.11
2023-04-03T16:53:39.179Z,9.13
2023-04-03T16:56:06.090Z,9.09
2023-04-03T16:58:32.663Z,8.87
2023-04-03T17:00:59.316Z,9.01
2023-04-03T17:03:27.083Z,8.88
2023-04-03T17:05:53.839Z,8.87
2023-04-03T17:08:20.456Z,8.81
2023-04-03T17:10:51.669Z,8.66
2023-04-03T17:13:18.540Z,8.75
2023-04-03T17:15:45.176Z,8.71
2023-04-03T17:18:11.954Z,8.59
2023-04-03T17:20:39.278Z,8.42
2023-04-03T17:23:06.825Z,8.59
2023-04-03T17:25:33.446Z,8.39
2023-04-03T17:28:02.659Z,8.33
2023-04-03T17:30:31.539Z,8.29
2023-04-03T17:32:58.138Z,8.19
2023-04-03T17:35:26.934Z,8.01
2023-04-03T17:37:53.732Z,8.15
2023-04-03T17:40:25.791Z,8.16
2023-04-03T17:42:54.881Z,7.95
2023-04-03T17:45:21.506Z,8.05
2023-04-03T17:47:50.139Z,7.94
2023-04-03T17:50:17.981Z,7.92
2023-04-03T17:52:47.025Z,7.76
2023-04-03T17:55:15.526Z,7.74
2023-04-03T17:57:45.187Z,7.50
2023-04-03T18:00:16.431Z,7.57
2023-04-03T18:02:46.102Z,7.45
2023-04-03T18:05:12.957Z,7.45
2023-04-03T18:07:43.483Z,7.40
2023-04-03T18:10:10.529Z,7.26
2023-04-03T18:12:37.545Z,7.25
2023-04-03T18:15:08.836Z,7.19
2023-04-03T18:17:35.477Z,7.17
2023-04-03T18:20:02.153Z,7.09
2023-04-03T18:22:34.662Z,6.97
2023-04-03T18:25:01.233Z,6.97
2023-04-03T18:27:28.281Z,6.95
2023-04-03T18:30:00.682Z,6.40
2023-04-03T18:32:27.678Z,5.91
2023-04-03T18:34:57.214Z,6.77
2023-04-03T18:37:26.610Z,6.59
2023-04-03T18:39:53.353Z,6.61
2023-04-03T18:42:25.020Z,6.61
2023-04-03T18:44:59.249Z,6.55
2023-04-03T18:47:28.199Z,6.46
2023-04-03T18:49:55.059Z,6.42
2023-04-03T18:52:27.265Z,6.23
2023-04-03T18:54:56.873Z,6.29
2023-04-03T18:57:28.825Z,6.26
2023-04-03T18:59:55.500Z,6.16
2023-04-03T19:02:24.642Z,5.93
2023-04-03T19:04:53.999Z,6.09
2023-04-03T19:07:23.103Z,6.13
2023-04-03T19:09:49.959Z,6.07
2023-04-03T19:12:19.072Z,5.86
2023-04-03T19:14:50.564Z,5.97
2023-04-03T19:17:17.207Z,5.93
2023-04-03T19:19:46.104Z,5.89
2023-04-03T19:22:12.818Z,5.77
2023-04-03T19:24:41.855Z,5.59
2023-04-03T19:27:08.476Z,5.74
2023-04-03T19:29:35.324Z,5.56
2023-04-03T19:32:01.908Z,5.50
2023-04-03T19:34:28.660Z,5.62
2023-04-03T19:37:01.002Z,5.44
2023-04-03T19:39:29.965Z,5.32
2023-04-03T19:41:59.372Z,5.45
2023-04-03T19:44:29.794Z,5.43
2023-04-03T19:46:56.674Z,5.24
2023-04-03T19:49:23.413Z,5.35
2023-04-03T19:51:50.085Z,5.23
2023-04-03T19:54:17.343Z,5.28
2023-04-03T19:56:43.980Z,5.26
2023-04-03T19:59:10.704Z,5.14
2023-04-03T20:01:37.710Z,5.17
2023-04-03T20:04:05.295Z,5.15
2023-04-03T20:06:36.853Z,4.95
2023-04-03T20:09:04.073Z,4.99
2023-04-03T20:11:30.977Z,3.00
2023-04-03T20:13:57.676Z,4.90
2023-04-03T20:16:26.219Z,4.93
2023-04-03T20:18:55.675Z,4.86
2023-04-03T20:21:33.425Z,4.85
2023-04-03T20:24:03.845Z,4.65
2023-04-03T20:26:38.826Z,4.77
2023-04-03T20:29:07.655Z,4.73
2023-04-03T20:31:34.541Z,4.68
2023-04-03T20:34:07.526Z,4.57
2023-04-03T20:36:34.968Z,4.40
2023-04-03T20:39:03.900Z,4.54
2023-04-03T20:41:35.452Z,4.50
2023-04-03T20:44:07.212Z,4.50
2023-04-03T20:46:42.671Z,4.45
2023-04-03T20:49:19.346Z,4.43
2023-04-03T20:51:46.078Z,4.39
2023-04-03T20:54:13.012Z,4.32
2023-04-03T20:56:42.763Z,4.26
2023-04-03T20:59:11.838Z,4.22
2023-04-03T21:01:43.215Z,4.03
2023-04-03T21:04:36.731Z,4.14
2023-04-03T21:07:41.522Z,4.11
2023-04-03T21:10:46.534Z,4.06
2023-04-03T21:13:50.901Z,4.00
2023-04-03T21:16:17.515Z,3.96
2023-04-03T21:19:12.501Z,3.94
2023-04-03T21:21:43.424Z,3.60
2023-04-03T21:24:10.977Z,3.86
2023-04-03T21:26:39.446Z,3.82
2023-04-03T21:29:12.192Z,3.77
2023-04-03T21:31:58.981Z,3.60
2023-04-03T21:34:30.294Z,3.59
2023-04-03T21:37:02.015Z,3.62
2023-04-03T21:39:31.490Z,3.55
2023-04-03T21:41:58.122Z,3.53
2023-04-03T21:44:25.120Z,3.38
2023-04-03T21:46:54.847Z,3.42
2023-04-03T21:49:22.869Z,3.31
2023-04-03T21:51:51.853Z,3.40
2023-04-03T21:54:18.934Z,3.37
2023-04-03T21:56:47.915Z,3.40
2023-04-03T21:59:14.854Z,3.29
2023-04-03T22:01:41.831Z,3.35
2023-04-03T22:04:08.722Z,3.21
2023-04-03T22:06:37.407Z,3.13
2023-04-03T22:09:06.942Z,2.92
2023-04-03T22:11:33.546Z,3.14
2023-04-03T22:14:00.263Z,3.01
2023-04-03T22:16:27.572Z,3.17
2023-04-03T22:18:59.316Z,3.10
2023-04-03T22:21:26.142Z,3.10
2023-04-03T22:23:54.539Z,3.05
2023-04-03T22:26:21.857Z,3.06
2023-04-03T22:28:48.598Z,3.09
2023-04-03T22:31:16.416Z,3.08
2023-04-03T22:33:44.435Z,2.84
2023-04-03T22:36:13.032Z,3.03
2023-04-03T22:38:43.511Z,2.95
2023-04-03T22:41:10.950Z,2.96
2023-04-03T22:43:38.305Z,2.95
2023-04-03T22:46:08.543Z,2.96
2023-04-03T22:48:35.949Z,2.31
2023-04-03T22:51:07.650Z,2.84
2023-04-03T22:53:35.506Z,2.87
2023-04-03T22:56:04.864Z,2.87
2023-04-03T22:58:34.248Z,2.84
2023-04-03T23:01:05.501Z,2.81
2023-04-03T23:03:32.659Z,2.78
2023-04-03T23:06:01.487Z,2.73
2023-04-03T23:08:29.280Z,2.02
2023-04-03T23:10:58.075Z,2.49
2023-04-03T23:13:25.641Z,2.10
2023-04-03T23:15:58.544Z,2.31
2023-04-03T23:18:31.763Z,2.40
2023-04-03T23:21:03.984Z,2.44
2023-04-03T23:23:31.151Z,2.32
2023-04-03T23:25:59.834Z,2.38
2023-04-03T23:28:27.527Z,2.36
2023-04-03T23:31:03.197Z,2.24
2023-04-03T23:33:31.320Z,2.26
2023-04-03T23:35:58.725Z,2.24
2023-04-03T23:38:26.577Z,2.19
2023-04-03T23:40:53.362Z,1.95
2023-04-03T23:43:22.796Z,1.76
2023-04-03T23:45:49.618Z,2.13
2023-04-03T23:48:18.537Z,2.14
2023-04-03T23:50:45.198Z,2.10
2023-04-03T23:53:14.960Z,1.94
2023-04-03T23:55:42.158Z,1.89
2023-04-03T23:58:09.108Z,2.00
